Terminal Aerodrome Forecast
Issued by NWS

Home | Current Version | Previous Version | Text Only | Print | Product List | Glossary On
Versions: 1 2 3 4 5 6 7 8 9 10 11 12 13
000
FTUS45 KTFX 031121
TAFBZN
TAF
KBZN 031121Z 0312/0412 VRB05KT P6SM SCT080
     FM031900 VRB05KT P6SM VCSH SCT050 BKN080
     FM032200 VRB05KT P6SM VCTS SCT040CB BKN070 PROB30 0323/0405
      -TSRA BKN035CB
     FM040500 16008KT P6SM BKN090=

USA.gov is the U.S. government's official web portal to all federal, state and local government web resources and services.